sensor_id;sensor_type;location;lat;lon;timestamp;temperature;humidity
8172;DHT22;4127;47.908;10.850;2023-03-21T00:07:48;6.00;99.90
8172;DHT22;4127;47.908;10.850;2023-03-21T00:10:35;6.10;99.90
8172;DHT22;4127;47.908;10.850;2023-03-21T00:13:14;6.00;99.90
8172;DHT22;4127;47.908;10.850;2023-03-21T00:15:42;6.20;99.90
8172;DHT22;4127;47.908;10.850;2023-03-21T00:38:46;5.90;99.90
8172;DHT22;4127;47.908;10.850;2023-03-21T00:41:12;6.00;99.90
8172;DHT22;4127;47.908;10.850;2023-03-21T00:43:57;5.90;99.90
8172;DHT22;4127;47.908;10.850;2023-03-21T00:50:07;6.00;99.90
8172;DHT22;4127;47.908;10.850;2023-03-21T00:52:34;6.00;99.90
8172;DHT22;4127;47.908;10.850;2023-03-21T00:55:08;6.10;99.90
8172;DHT22;4127;47.908;10.850;2023-03-21T00:57:36;6.00;99.90
8172;DHT22;4127;47.908;10.850;2023-03-21T01:04:35;6.00;99.90
8172;DHT22;4127;47.908;10.850;2023-03-21T01:07:17;6.00;99.90
8172;DHT22;4127;47.908;10.850;2023-03-21T01:09:43;6.00;99.90
8172;DHT22;4127;47.908;10.850;2023-03-21T01:12:10;6.00;99.90
8172;DHT22;4127;47.908;10.850;2023-03-21T01:19:00;6.00;99.90
8172;DHT22;4127;47.908;10.850;2023-03-21T01:21:30;6.00;99.90
8172;DHT22;4127;47.908;10.850;2023-03-21T01:23:58;6.00;99.90
8172;DHT22;4127;47.908;10.850;2023-03-21T01:26:25;6.10;99.90
8172;DHT22;4127;47.908;10.850;2023-03-21T01:29:14;6.10;99.90
8172;DHT22;4127;47.908;10.850;2023-03-21T01:32:45;6.10;99.90
8172;DHT22;4127;47.908;10.850;2023-03-21T01:35:12;6.10;99.90
8172;DHT22;4127;47.908;10.850;2023-03-21T01:37:39;6.10;99.90
8172;DHT22;4127;47.908;10.850;2023-03-21T01:40:06;6.40;99.90
8172;DHT22;4127;47.908;10.850;2023-03-21T01:49:35;6.10;99.90
8172;DHT22;4127;47.908;10.850;2023-03-21T01:52:08;6.10;99.90
8172;DHT22;4127;47.908;10.850;2023-03-21T01:58:52;6.10;99.90
8172;DHT22;4127;47.908;10.850;2023-03-21T02:01:23;6.20;99.90
8172;DHT22;4127;47.908;10.850;2023-03-21T02:03:50;6.20;99.90
8172;DHT22;4127;47.908;10.850;2023-03-21T02:06:31;6.00;99.90
8172;DHT22;4127;47.908;10.850;2023-03-21T02:20:10;6.20;99.90
8172;DHT22;4127;47.908;10.850;2023-03-21T02:38:53;6.50;99.90
8172;DHT22;4127;47.908;10.850;2023-03-21T02:47:03;6.50;99.90
8172;DHT22;4127;47.908;10.850;2023-03-21T03:14:51;6.20;99.90
8172;DHT22;4127;47.908;10.850;2023-03-21T03:18:10;6.20;99.90
8172;DHT22;4127;47.908;10.850;2023-03-21T03:21:40;6.20;99.90
8172;DHT22;4127;47.908;10.850;2023-03-21T03:24:23;6.20;99.90
8172;DHT22;4127;47.908;10.850;2023-03-21T03:27:10;6.10;99.90
8172;DHT22;4127;47.908;10.850;2023-03-21T03:29:40;6.10;99.90
8172;DHT22;4127;47.908;10.850;2023-03-21T03:32:58;6.10;99.90
8172;DHT22;4127;47.908;10.850;2023-03-21T03:35:54;6.00;99.90
8172;DHT22;4127;47.908;10.850;2023-03-21T03:38:33;6.00;99.90
8172;DHT22;4127;47.908;10.850;2023-03-21T03:41:07;5.90;99.90
8172;DHT22;4127;47.908;10.850;2023-03-21T03:47:56;6.10;99.90
8172;DHT22;4127;47.908;10.850;2023-03-21T06:11:40;6.00;99.90
8172;DHT22;4127;47.908;10.850;2023-03-21T06:15:09;6.20;99.90
8172;DHT22;4127;47.908;10.850;2023-03-21T06:23:01;6.20;99.90
8172;DHT22;4127;47.908;10.850;2023-03-21T06:56:34;7.40;99.90
8172;DHT22;4127;47.908;10.850;2023-03-21T07:04:43;7.50;99.90
8172;DHT22;4127;47.908;10.850;2023-03-21T07:07:11;7.60;99.90
8172;DHT22;4127;47.908;10.850;2023-03-21T07:21:18;7.80;99.90
8172;DHT22;4127;47.908;10.850;2023-03-21T07:24:00;7.90;99.90
8172;DHT22;4127;47.908;10.850;2023-03-21T07:27:16;8.00;99.90
8172;DHT22;4127;47.908;10.850;2023-03-21T07:29:45;8.10;99.90
8172;DHT22;4127;47.908;10.850;2023-03-21T07:32:17;8.00;99.90
8172;DHT22;4127;47.908;10.850;2023-03-21T07:38:12;8.30;99.90
8172;DHT22;4127;47.908;10.850;2023-03-21T07:40:49;8.40;99.90
8172;DHT22;4127;47.908;10.850;2023-03-21T07:43:17;8.40;99.90
8172;DHT22;4127;47.908;10.850;2023-03-21T07:45:55;8.50;99.90
8172;DHT22;4127;47.908;10.850;2023-03-21T07:48:23;8.50;99.90
8172;DHT22;4127;47.908;10.850;2023-03-21T07:54:06;8.70;99.90
8172;DHT22;4127;47.908;10.850;2023-03-21T07:56:59;8.80;99.90
8172;DHT22;4127;47.908;10.850;2023-03-21T08:00:29;8.90;99.90
8172;DHT22;4127;47.908;10.850;2023-03-21T08:02:57;9.00;99.90
8172;DHT22;4127;47.908;10.850;2023-03-21T08:05:42;9.00;99.90
8172;DHT22;4127;47.908;10.850;2023-03-21T08:12:19;8.90;99.90
8172;DHT22;4127;47.908;10.850;2023-03-21T08:14:46;8.90;99.90
8172;DHT22;4127;47.908;10.850;2023-03-21T08:17:13;9.00;99.90
8172;DHT22;4127;47.908;10.850;2023-03-21T08:19:40;9.00;99.90
8172;DHT22;4127;47.908;10.850;2023-03-21T08:26:08;9.30;99.90
8172;DHT22;4127;47.908;10.850;2023-03-21T08:28:36;9.60;99.90
8172;DHT22;4127;47.908;10.850;2023-03-21T08:31:09;9.70;99.90
8172;DHT22;4127;47.908;10.850;2023-03-21T08:33:37;9.90;99.90
8172;DHT22;4127;47.908;10.850;2023-03-21T08:40:10;10.20;99.90
8172;DHT22;4127;47.908;10.850;2023-03-21T08:42:45;10.30;99.90
8172;DHT22;4127;47.908;10.850;2023-03-21T08:45:14;10.40;99.90
8172;DHT22;4127;47.908;10.850;2023-03-21T08:47:41;10.40;99.90
8172;DHT22;4127;47.908;10.850;2023-03-21T09:01:17;10.60;99.90
8172;DHT22;4127;47.908;10.850;2023-03-21T09:05:09;10.40;99.90
8172;DHT22;4127;47.908;10.850;2023-03-21T09:08:08;10.30;99.90
8172;DHT22;4127;47.908;10.850;2023-03-21T09:10:35;10.40;99.90
8172;DHT22;4127;47.908;10.850;2023-03-21T09:13:02;10.60;99.90
8172;DHT22;4127;47.908;10.850;2023-03-21T09:15:29;10.60;99.90
8172;DHT22;4127;47.908;10.850;2023-03-21T09:18:21;10.60;99.90
8172;DHT22;4127;47.908;10.850;2023-03-21T09:21:52;10.50;99.90
8172;DHT22;4127;47.908;10.850;2023-03-21T09:24:19;10.40;99.90
8172;DHT22;4127;47.908;10.850;2023-03-21T09:26:47;10.50;99.90
8172;DHT22;4127;47.908;10.850;2023-03-21T09:29:17;10.60;99.90
8172;DHT22;4127;47.908;10.850;2023-03-21T09:31:45;10.90;99.90
8172;DHT22;4127;47.908;10.850;2023-03-21T09:34:20;11.20;99.90
8172;DHT22;4127;47.908;10.850;2023-03-21T09:36:49;11.00;99.90
8172;DHT22;4127;47.908;10.850;2023-03-21T09:40:04;11.20;99.90
8172;DHT22;4127;47.908;10.850;2023-03-21T09:53:32;11.20;99.90
8172;DHT22;4127;47.908;10.850;2023-03-21T09:56:07;11.40;99.90
8172;DHT22;4127;47.908;10.850;2023-03-21T09:58:49;11.40;99.90
8172;DHT22;4127;47.908;10.850;2023-03-21T10:19:28;11.90;99.90
8172;DHT22;4127;47.908;10.850;2023-03-21T10:21:56;12.10;99.90
8172;DHT22;4127;47.908;10.850;2023-03-21T10:24:54;12.00;99.90
8172;DHT22;4127;47.908;10.850;2023-03-21T10:27:48;11.80;99.90
8172;DHT22;4127;47.908;10.850;2023-03-21T10:30:41;11.60;99.90
8172;DHT22;4127;47.908;10.850;2023-03-21T10:34:47;12.00;99.90
8172;DHT22;4127;47.908;10.850;2023-03-21T10:38:01;12.50;99.90
8172;DHT22;4127;47.908;10.850;2023-03-21T10:44:32;12.80;99.90
8172;DHT22;4127;47.908;10.850;2023-03-21T10:47:05;13.00;99.90
8172;DHT22;4127;47.908;10.850;2023-03-21T10:49:35;13.20;99.90
8172;DHT22;4127;47.908;10.850;2023-03-21T10:59:44;13.00;99.60
8172;DHT22;4127;47.908;10.850;2023-03-21T11:04:43;12.80;99.90
8172;DHT22;4127;47.908;10.850;2023-03-21T11:07:13;13.00;99.90
8172;DHT22;4127;47.908;10.850;2023-03-21T11:09:55;13.30;99.90
8172;DHT22;4127;47.908;10.850;2023-03-21T11:12:37;13.40;99.90
8172;DHT22;4127;47.908;10.850;2023-03-21T11:17:53;12.60;99.90
8172;DHT22;4127;47.908;10.850;2023-03-21T11:20:21;12.50;99.90
8172;DHT22;4127;47.908;10.850;2023-03-21T11:22:48;12.70;99.90
8172;DHT22;4127;47.908;10.850;2023-03-21T11:25:23;12.70;99.90
8172;DHT22;4127;47.908;10.850;2023-03-21T11:27:54;12.80;99.90
8172;DHT22;4127;47.908;10.850;2023-03-21T11:30:26;13.10;99.90
8172;DHT22;4127;47.908;10.850;2023-03-21T11:32:55;13.50;99.90
8172;DHT22;4127;47.908;10.850;2023-03-21T11:35:26;13.80;99.90
8172;DHT22;4127;47.908;10.850;2023-03-21T11:37:55;14.00;98.50
8172;DHT22;4127;47.908;10.850;2023-03-21T11:42:55;14.30;98.10
8172;DHT22;4127;47.908;10.850;2023-03-21T11:45:30;14.00;99.00
8172;DHT22;4127;47.908;10.850;2023-03-21T11:48:00;13.70;99.30
8172;DHT22;4127;47.908;10.850;2023-03-21T11:50:33;13.20;99.90
8172;DHT22;4127;47.908;10.850;2023-03-21T12:01:04;14.20;99.50
8172;DHT22;4127;47.908;10.850;2023-03-21T12:20:18;14.20;98.40
8172;DHT22;4127;47.908;10.850;2023-03-21T12:25:55;14.20;97.90
8172;DHT22;4127;47.908;10.850;2023-03-21T12:36:46;13.60;99.90
8172;DHT22;4127;47.908;10.850;2023-03-21T12:39:35;13.50;98.90
8172;DHT22;4127;47.908;10.850;2023-03-21T12:45:21;13.70;99.60
8172;DHT22;4127;47.908;10.850;2023-03-21T12:47:53;13.60;99.40
8172;DHT22;4127;47.908;10.850;2023-03-21T12:50:30;13.80;98.60
8172;DHT22;4127;47.908;10.850;2023-03-21T12:56:08;13.70;97.80
8172;DHT22;4127;47.908;10.850;2023-03-21T12:58:45;13.80;99.20
8172;DHT22;4127;47.908;10.850;2023-03-21T13:01:15;14.10;98.10
8172;DHT22;4127;47.908;10.850;2023-03-21T13:03:50;14.10;97.90
8172;DHT22;4127;47.908;10.850;2023-03-21T13:06:20;13.80;99.90
8172;DHT22;4127;47.908;10.850;2023-03-21T13:11:26;13.60;99.90
8172;DHT22;4127;47.908;10.850;2023-03-21T13:14:10;13.70;99.40
8172;DHT22;4127;47.908;10.850;2023-03-21T13:20:31;13.90;99.10
8172;DHT22;4127;47.908;10.850;2023-03-21T13:22:48;14.00;98.40
8172;DHT22;4127;47.908;10.850;2023-03-21T13:25:22;14.40;97.90
8172;DHT22;4127;47.908;10.850;2023-03-21T13:30:21;14.20;97.90
8172;DHT22;4127;47.908;10.850;2023-03-21T13:32:50;14.20;97.60
8172;DHT22;4127;47.908;10.850;2023-03-21T13:35:20;14.60;97.80
8172;DHT22;4127;47.908;10.850;2023-03-21T13:37:57;14.40;97.50
8172;DHT22;4127;47.908;10.850;2023-03-21T13:40:28;14.30;98.00
8172;DHT22;4127;47.908;10.850;2023-03-21T13:43:00;14.20;98.40
8172;DHT22;4127;47.908;10.850;2023-03-21T13:45:44;14.50;97.90
8172;DHT22;4127;47.908;10.850;2023-03-21T13:48:40;14.80;97.60
8172;DHT22;4127;47.908;10.850;2023-03-21T13:51:19;14.70;98.50
8172;DHT22;4127;47.908;10.850;2023-03-21T13:59:42;14.70;97.40
8172;DHT22;4127;47.908;10.850;2023-03-21T14:02:34;14.90;97.50
8172;DHT22;4127;47.908;10.850;2023-03-21T14:05:15;15.30;96.80
8172;DHT22;4127;47.908;10.850;2023-03-21T14:07:45;15.30;96.60
8172;DHT22;4127;47.908;10.850;2023-03-21T14:12:54;14.40;96.60
8172;DHT22;4127;47.908;10.850;2023-03-21T14:15:23;14.70;97.70
8172;DHT22;4127;47.908;10.850;2023-03-21T14:17:57;14.90;97.10
8172;DHT22;4127;47.908;10.850;2023-03-21T14:22:53;14.40;97.30
8172;DHT22;4127;47.908;10.850;2023-03-21T14:25:21;14.40;97.60
8172;DHT22;4127;47.908;10.850;2023-03-21T14:27:56;14.20;97.40
8172;DHT22;4127;47.908;10.850;2023-03-21T14:30:28;14.50;97.50
8172;DHT22;4127;47.908;10.850;2023-03-21T14:32:57;14.70;97.60
8172;DHT22;4127;47.908;10.850;2023-03-21T14:35:28;14.70;97.70
8172;DHT22;4127;47.908;10.850;2023-03-21T14:38:01;14.50;98.00
8172;DHT22;4127;47.908;10.850;2023-03-21T14:40:29;14.40;98.40
8172;DHT22;4127;47.908;10.850;2023-03-21T14:42:56;14.30;97.90
8172;DHT22;4127;47.908;10.850;2023-03-21T14:45:26;14.40;98.10
8172;DHT22;4127;47.908;10.850;2023-03-21T14:48:00;14.50;97.60
8172;DHT22;4127;47.908;10.850;2023-03-21T14:50:35;14.70;97.70
8172;DHT22;4127;47.908;10.850;2023-03-21T14:53:05;14.90;97.40
8172;DHT22;4127;47.908;10.850;2023-03-21T14:55:43;15.10;97.90
8172;DHT22;4127;47.908;10.850;2023-03-21T14:58:13;15.20;96.50
8172;DHT22;4127;47.908;10.850;2023-03-21T15:00:41;15.00;97.40
8172;DHT22;4127;47.908;10.850;2023-03-21T15:03:11;15.10;97.70
8172;DHT22;4127;47.908;10.850;2023-03-21T15:05:40;15.20;97.50
8172;DHT22;4127;47.908;10.850;2023-03-21T15:08:19;15.30;96.50
8172;DHT22;4127;47.908;10.850;2023-03-21T15:13:42;15.40;97.20
8172;DHT22;4127;47.908;10.850;2023-03-21T15:16:11;15.30;96.20
8172;DHT22;4127;47.908;10.850;2023-03-21T15:18:41;15.00;97.50
8172;DHT22;4127;47.908;10.850;2023-03-21T15:21:13;15.10;97.70
8172;DHT22;4127;47.908;10.850;2023-03-21T15:23:44;15.20;95.80
8172;DHT22;4127;47.908;10.850;2023-03-21T15:26:17;14.90;97.60
8172;DHT22;4127;47.908;10.850;2023-03-21T15:28:46;15.00;95.90
8172;DHT22;4127;47.908;10.850;2023-03-21T15:31:19;14.80;97.50
8172;DHT22;4127;47.908;10.850;2023-03-21T15:33:52;14.90;95.40
8172;DHT22;4127;47.908;10.850;2023-03-21T15:36:43;15.00;96.30
8172;DHT22;4127;47.908;10.850;2023-03-21T15:39:12;15.10;95.90
8172;DHT22;4127;47.908;10.850;2023-03-21T15:41:39;15.00;95.00
8172;DHT22;4127;47.908;10.850;2023-03-21T15:46:49;14.90;95.00
8172;DHT22;4127;47.908;10.850;2023-03-21T15:49:31;14.70;95.40
8172;DHT22;4127;47.908;10.850;2023-03-21T15:52:15;14.80;95.20
8172;DHT22;4127;47.908;10.850;2023-03-21T15:54:47;14.90;95.90
8172;DHT22;4127;47.908;10.850;2023-03-21T15:59:46;15.00;95.30
8172;DHT22;4127;47.908;10.850;2023-03-21T16:02:19;15.00;94.50
8172;DHT22;4127;47.908;10.850;2023-03-21T16:04:54;14.90;94.50
8172;DHT22;4127;47.908;10.850;2023-03-21T16:07:23;14.80;95.40
8172;DHT22;4127;47.908;10.850;2023-03-21T16:09:57;14.70;95.60
8172;DHT22;4127;47.908;10.850;2023-03-21T16:12:25;14.80;95.90
8172;DHT22;4127;47.908;10.850;2023-03-21T16:14:52;14.80;95.50
8172;DHT22;4127;47.908;10.850;2023-03-21T16:17:33;14.80;95.50
8172;DHT22;4127;47.908;10.850;2023-03-21T16:20:15;14.50;92.00
8172;DHT22;4127;47.908;10.850;2023-03-21T16:22:43;14.50;91.80
8172;DHT22;4127;47.908;10.850;2023-03-21T16:25:09;14.30;91.00
8172;DHT22;4127;47.908;10.850;2023-03-21T16:27:36;14.20;91.10
8172;DHT22;4127;47.908;10.850;2023-03-21T16:30:04;14.10;91.50
8172;DHT22;4127;47.908;10.850;2023-03-21T16:32:31;13.90;91.30
8172;DHT22;4127;47.908;10.850;2023-03-21T16:34:58;13.90;91.00
8172;DHT22;4127;47.908;10.850;2023-03-21T16:37:25;13.80;91.00
8172;DHT22;4127;47.908;10.850;2023-03-21T16:39:53;13.80;91.80
8172;DHT22;4127;47.908;10.850;2023-03-21T16:42:19;13.70;90.90
8172;DHT22;4127;47.908;10.850;2023-03-21T16:44:46;13.70;90.90
8172;DHT22;4127;47.908;10.850;2023-03-21T16:47:18;13.60;90.20
8172;DHT22;4127;47.908;10.850;2023-03-21T16:49:45;13.50;89.50
8172;DHT22;4127;47.908;10.850;2023-03-21T16:52:12;13.50;89.00
8172;DHT22;4127;47.908;10.850;2023-03-21T16:54:40;13.50;89.70
8172;DHT22;4127;47.908;10.850;2023-03-21T16:57:15;13.40;88.80
8172;DHT22;4127;47.908;10.850;2023-03-21T16:59:44;13.30;88.80
8172;DHT22;4127;47.908;10.850;2023-03-21T17:04:45;13.20;91.00
8172;DHT22;4127;47.908;10.850;2023-03-21T17:07:12;13.10;92.20
8172;DHT22;4127;47.908;10.850;2023-03-21T17:09:41;13.00;92.70
8172;DHT22;4127;47.908;10.850;2023-03-21T17:12:13;13.00;93.20
8172;DHT22;4127;47.908;10.850;2023-03-21T17:14:41;13.00;94.10
8172;DHT22;4127;47.908;10.850;2023-03-21T17:17:13;12.80;95.30
8172;DHT22;4127;47.908;10.850;2023-03-21T17:19:40;12.70;95.80
8172;DHT22;4127;47.908;10.850;2023-03-21T17:22:08;12.60;96.50
8172;DHT22;4127;47.908;10.850;2023-03-21T17:24:37;12.50;96.70
8172;DHT22;4127;47.908;10.850;2023-03-21T17:27:06;12.40;96.80
8172;DHT22;4127;47.908;10.850;2023-03-21T17:29:33;12.30;96.80
8172;DHT22;4127;47.908;10.850;2023-03-21T17:32:00;12.20;96.80
8172;DHT22;4127;47.908;10.850;2023-03-21T17:34:27;12.10;98.00
8172;DHT22;4127;47.908;10.850;2023-03-21T17:36:54;12.10;98.70
8172;DHT22;4127;47.908;10.850;2023-03-21T17:39:25;11.90;99.50
8172;DHT22;4127;47.908;10.850;2023-03-21T17:41:54;11.90;99.90
8172;DHT22;4127;47.908;10.850;2023-03-21T17:44:22;11.90;99.90
8172;DHT22;4127;47.908;10.850;2023-03-21T17:46:49;11.80;99.90
8172;DHT22;4127;47.908;10.850;2023-03-21T17:49:17;11.70;99.90
8172;DHT22;4127;47.908;10.850;2023-03-21T17:51:45;11.60;99.90
8172;DHT22;4127;47.908;10.850;2023-03-21T17:54:12;11.60;99.90
8172;DHT22;4127;47.908;10.850;2023-03-21T17:56:39;11.70;99.90
8172;DHT22;4127;47.908;10.850;2023-03-21T17:59:11;11.60;99.90
8172;DHT22;4127;47.908;10.850;2023-03-21T18:01:39;11.60;99.90
8172;DHT22;4127;47.908;10.850;2023-03-21T18:04:06;11.40;99.90
8172;DHT22;4127;47.908;10.850;2023-03-21T18:06:33;11.20;99.90
8172;DHT22;4127;47.908;10.850;2023-03-21T18:09:00;11.10;99.90
8172;DHT22;4127;47.908;10.850;2023-03-21T18:11:32;11.10;99.90
8172;DHT22;4127;47.908;10.850;2023-03-21T18:13:59;10.90;99.90
8172;DHT22;4127;47.908;10.850;2023-03-21T18:16:41;10.80;99.90
8172;DHT22;4127;47.908;10.850;2023-03-21T18:19:09;10.70;99.90
8172;DHT22;4127;47.908;10.850;2023-03-21T18:21:36;10.60;99.90
8172;DHT22;4127;47.908;10.850;2023-03-21T18:24:06;10.60;99.90
8172;DHT22;4127;47.908;10.850;2023-03-21T18:26:33;10.50;99.90
8172;DHT22;4127;47.908;10.850;2023-03-21T18:29:00;10.50;99.90
8172;DHT22;4127;47.908;10.850;2023-03-21T18:31:47;10.50;99.90
8172;DHT22;4127;47.908;10.850;2023-03-21T18:34:31;10.40;99.90
8172;DHT22;4127;47.908;10.850;2023-03-21T18:36:58;10.40;99.90
8172;DHT22;4127;47.908;10.850;2023-03-21T18:39:29;10.50;99.90
8172;DHT22;4127;47.908;10.850;2023-03-21T18:41:56;10.40;99.90
8172;DHT22;4127;47.908;10.850;2023-03-21T18:44:28;10.40;99.90
8172;DHT22;4127;47.908;10.850;2023-03-21T18:47:04;10.40;99.90
8172;DHT22;4127;47.908;10.850;2023-03-21T18:49:32;10.30;99.90
8172;DHT22;4127;47.908;10.850;2023-03-21T18:52:18;10.20;99.90
8172;DHT22;4127;47.908;10.850;2023-03-21T18:54:45;10.10;99.90
8172;DHT22;4127;47.908;10.850;2023-03-21T18:57:13;10.10;99.90
8172;DHT22;4127;47.908;10.850;2023-03-21T19:00:01;10.00;99.90
8172;DHT22;4127;47.908;10.850;2023-03-21T19:02:31;10.00;99.90
8172;DHT22;4127;47.908;10.850;2023-03-21T19:04:58;9.90;99.90
8172;DHT22;4127;47.908;10.850;2023-03-21T19:07:25;9.90;99.90
8172;DHT22;4127;47.908;10.850;2023-03-21T19:09:52;9.80;99.90
8172;DHT22;4127;47.908;10.850;2023-03-21T19:12:40;9.80;99.90
8172;DHT22;4127;47.908;10.850;2023-03-21T19:15:07;9.80;99.90
8172;DHT22;4127;47.908;10.850;2023-03-21T19:17:35;9.80;99.90
8172;DHT22;4127;47.908;10.850;2023-03-21T19:20:22;9.70;99.90
8172;DHT22;4127;47.908;10.850;2023-03-21T19:22:49;9.70;99.90
8172;DHT22;4127;47.908;10.850;2023-03-21T19:25:16;9.70;99.90
8172;DHT22;4127;47.908;10.850;2023-03-21T19:27:43;9.70;99.90
8172;DHT22;4127;47.908;10.850;2023-03-21T19:30:11;9.70;99.90
8172;DHT22;4127;47.908;10.850;2023-03-21T19:32:42;9.80;99.90
8172;DHT22;4127;47.908;10.850;2023-03-21T19:35:09;9.80;99.90
8172;DHT22;4127;47.908;10.850;2023-03-21T19:37:36;9.80;99.90
8172;DHT22;4127;47.908;10.850;2023-03-21T19:40:04;9.90;99.90
8172;DHT22;4127;47.908;10.850;2023-03-21T19:42:32;9.80;99.90
8172;DHT22;4127;47.908;10.850;2023-03-21T19:45:00;9.70;99.90
8172;DHT22;4127;47.908;10.850;2023-03-21T19:47:27;9.70;99.90
8172;DHT22;4127;47.908;10.850;2023-03-21T19:49:53;9.60;99.90
8172;DHT22;4127;47.908;10.850;2023-03-21T19:52:40;9.70;99.90
8172;DHT22;4127;47.908;10.850;2023-03-21T19:55:08;9.60;99.90
8172;DHT22;4127;47.908;10.850;2023-03-21T19:57:36;9.50;99.90
8172;DHT22;4127;47.908;10.850;2023-03-21T20:00:03;9.50;99.90
8172;DHT22;4127;47.908;10.850;2023-03-21T20:02:30;9.40;99.90
8172;DHT22;4127;47.908;10.850;2023-03-21T20:05:06;9.30;99.90
8172;DHT22;4127;47.908;10.850;2023-03-21T20:07:33;9.20;99.90
8172;DHT22;4127;47.908;10.850;2023-03-21T20:10:00;9.20;99.90
8172;DHT22;4127;47.908;10.850;2023-03-21T20:12:27;9.20;99.90
8172;DHT22;4127;47.908;10.850;2023-03-21T20:14:54;9.30;99.90
8172;DHT22;4127;47.908;10.850;2023-03-21T20:17:41;9.10;99.90
8172;DHT22;4127;47.908;10.850;2023-03-21T20:20:08;9.10;99.90
8172;DHT22;4127;47.908;10.850;2023-03-21T20:22:35;9.10;99.90
8172;DHT22;4127;47.908;10.850;2023-03-21T20:25:22;9.10;99.90
8172;DHT22;4127;47.908;10.850;2023-03-21T20:27:49;9.00;99.90
8172;DHT22;4127;47.908;10.850;2023-03-21T20:30:35;9.10;99.90
8172;DHT22;4127;47.908;10.850;2023-03-21T20:33:02;9.10;99.90
8172;DHT22;4127;47.908;10.850;2023-03-21T20:35:29;9.10;99.90
8172;DHT22;4127;47.908;10.850;2023-03-21T20:38:16;8.90;99.90
8172;DHT22;4127;47.908;10.850;2023-03-21T20:40:46;9.10;99.90
8172;DHT22;4127;47.908;10.850;2023-03-21T20:43:13;8.70;99.90
8172;DHT22;4127;47.908;10.850;2023-03-21T20:46:05;8.60;99.90
8172;DHT22;4127;47.908;10.850;2023-03-21T20:48:33;8.60;99.90
8172;DHT22;4127;47.908;10.850;2023-03-21T20:51:08;8.70;99.90
8172;DHT22;4127;47.908;10.850;2023-03-21T20:53:54;8.60;99.90
8172;DHT22;4127;47.908;10.850;2023-03-21T20:56:22;8.60;99.90
8172;DHT22;4127;47.908;10.850;2023-03-21T20:58:49;8.60;99.90
8172;DHT22;4127;47.908;10.850;2023-03-21T21:01:36;8.60;99.90
8172;DHT22;4127;47.908;10.850;2023-03-21T21:04:04;8.50;99.90
8172;DHT22;4127;47.908;10.850;2023-03-21T21:06:31;8.50;99.90
8172;DHT22;4127;47.908;10.850;2023-03-21T21:08:58;8.40;99.90
8172;DHT22;4127;47.908;10.850;2023-03-21T21:11:25;8.30;99.90
8172;DHT22;4127;47.908;10.850;2023-03-21T21:14:14;8.30;99.90
8172;DHT22;4127;47.908;10.850;2023-03-21T21:16:41;8.30;99.90
8172;DHT22;4127;47.908;10.850;2023-03-21T21:19:08;8.30;99.90
8172;DHT22;4127;47.908;10.850;2023-03-21T21:21:35;8.30;99.90
8172;DHT22;4127;47.908;10.850;2023-03-21T21:24:03;8.40;99.90
8172;DHT22;4127;47.908;10.850;2023-03-21T21:26:33;8.40;99.90
8172;DHT22;4127;47.908;10.850;2023-03-21T21:29:00;8.50;99.90
8172;DHT22;4127;47.908;10.850;2023-03-21T21:31:27;8.50;99.90
8172;DHT22;4127;47.908;10.850;2023-03-21T21:33:54;8.50;99.90
8172;DHT22;4127;47.908;10.850;2023-03-21T21:36:21;8.50;99.90
8172;DHT22;4127;47.908;10.850;2023-03-21T21:38:48;8.50;99.90
8172;DHT22;4127;47.908;10.850;2023-03-21T21:41:18;8.60;99.90
8172;DHT22;4127;47.908;10.850;2023-03-21T21:43:46;8.60;99.90
8172;DHT22;4127;47.908;10.850;2023-03-21T21:46:13;8.60;99.90
8172;DHT22;4127;47.908;10.850;2023-03-21T21:48:40;8.70;99.90
8172;DHT22;4127;47.908;10.850;2023-03-21T21:51:07;8.70;99.90
8172;DHT22;4127;47.908;10.850;2023-03-21T21:53:34;8.70;99.90
8172;DHT22;4127;47.908;10.850;2023-03-21T21:56:03;8.70;99.90
8172;DHT22;4127;47.908;10.850;2023-03-21T21:58:31;8.80;99.90
8172;DHT22;4127;47.908;10.850;2023-03-21T22:01:00;8.70;99.90
8172;DHT22;4127;47.908;10.850;2023-03-21T22:03:30;8.80;99.90
8172;DHT22;4127;47.908;10.850;2023-03-21T22:06:08;8.60;99.90
8172;DHT22;4127;47.908;10.850;2023-03-21T22:08:35;8.70;99.90
8172;DHT22;4127;47.908;10.850;2023-03-21T22:11:03;8.70;99.90
8172;DHT22;4127;47.908;10.850;2023-03-21T22:13:30;8.70;99.90
8172;DHT22;4127;47.908;10.850;2023-03-21T22:15:57;8.60;99.90
8172;DHT22;4127;47.908;10.850;2023-03-21T22:18:24;8.70;99.90
8172;DHT22;4127;47.908;10.850;2023-03-21T22:20:50;8.60;99.90
8172;DHT22;4127;47.908;10.850;2023-03-21T22:23:17;8.50;99.90
8172;DHT22;4127;47.908;10.850;2023-03-21T22:25:49;8.50;99.90
8172;DHT22;4127;47.908;10.850;2023-03-21T22:28:16;8.40;99.90
8172;DHT22;4127;47.908;10.850;2023-03-21T22:30:47;8.40;99.90
8172;DHT22;4127;47.908;10.850;2023-03-21T22:33:14;8.40;99.90
8172;DHT22;4127;47.908;10.850;2023-03-21T22:35:41;8.40;99.90
8172;DHT22;4127;47.908;10.850;2023-03-21T22:38:08;8.40;99.90
8172;DHT22;4127;47.908;10.850;2023-03-21T22:40:34;8.30;99.90
8172;DHT22;4127;47.908;10.850;2023-03-21T22:43:02;8.30;99.90
8172;DHT22;4127;47.908;10.850;2023-03-21T22:45:28;8.30;99.90
8172;DHT22;4127;47.908;10.850;2023-03-21T22:47:55;8.30;99.90
8172;DHT22;4127;47.908;10.850;2023-03-21T22:50:23;8.20;99.90
8172;DHT22;4127;47.908;10.850;2023-03-21T22:52:50;8.20;99.90
8172;DHT22;4127;47.908;10.850;2023-03-21T22:55:17;8.10;99.90
8172;DHT22;4127;47.908;10.850;2023-03-21T22:57:43;8.10;99.90
8172;DHT22;4127;47.908;10.850;2023-03-21T23:00:11;8.00;99.90
8172;DHT22;4127;47.908;10.850;2023-03-21T23:02:39;8.10;99.90
8172;DHT22;4127;47.908;10.850;2023-03-21T23:05:10;8.00;99.90
8172;DHT22;4127;47.908;10.850;2023-03-21T23:07:37;8.00;99.90
8172;DHT22;4127;47.908;10.850;2023-03-21T23:10:05;8.10;99.90
8172;DHT22;4127;47.908;10.850;2023-03-21T23:12:32;8.00;99.90
8172;DHT22;4127;47.908;10.850;2023-03-21T23:14:59;8.00;99.90
8172;DHT22;4127;47.908;10.850;2023-03-21T23:17:28;8.00;99.90
8172;DHT22;4127;47.908;10.850;2023-03-21T23:19:54;7.80;99.90
8172;DHT22;4127;47.908;10.850;2023-03-21T23:22:21;8.00;99.90
8172;DHT22;4127;47.908;10.850;2023-03-21T23:24:48;8.00;99.90
8172;DHT22;4127;47.908;10.850;2023-03-21T23:27:15;8.00;99.90
8172;DHT22;4127;47.908;10.850;2023-03-21T23:29:43;8.00;99.90
8172;DHT22;4127;47.908;10.850;2023-03-21T23:32:10;8.00;99.90
8172;DHT22;4127;47.908;10.850;2023-03-21T23:34:37;8.00;99.90
8172;DHT22;4127;47.908;10.850;2023-03-21T23:37:04;8.00;99.90
8172;DHT22;4127;47.908;10.850;2023-03-21T23:39:32;8.00;99.90
8172;DHT22;4127;47.908;10.850;2023-03-21T23:42:00;8.10;99.90
8172;DHT22;4127;47.908;10.850;2023-03-21T23:44:26;8.10;99.90
8172;DHT22;4127;47.908;10.850;2023-03-21T23:46:53;8.20;99.90
8172;DHT22;4127;47.908;10.850;2023-03-21T23:49:20;8.10;99.90
8172;DHT22;4127;47.908;10.850;2023-03-21T23:51:47;8.10;99.90
8172;DHT22;4127;47.908;10.850;2023-03-21T23:54:15;8.10;99.90
8172;DHT22;4127;47.908;10.850;2023-03-21T23:56:42;8.10;99.90
8172;DHT22;4127;47.908;10.850;2023-03-21T23:59:09;8.10;99.90
